Time;durP1;ratioP1;P1;durP2;ratioP2;P2;SDS_P1;SDS_P2;PMS_P1;PMS_P2;Temp;Humidity;BMP_temperature;BMP_pressure;BME280_temperature;BME280_humidity;BME280_pressure;Samples;Min_cycle;Max_cycle;Signal;HPM_P1;HPM_P2
2023/03/12 00:02:00;;;;;;;;;;;0.30;99.90;;;;;;5065915;28;19945;-47
2023/03/12 00:04:27;;;;;;;;;;;0.30;99.90;;;;;;5070538;28;20594;-50
2023/03/12 00:06:54;;;;;;;;;;;0.30;99.90;;;;;;5070745;28;20042;-46
2023/03/12 00:09:20;;;;;;;;;;;0.30;99.90;;;;;;5063088;28;19987;-47
2023/03/12 00:11:47;;;;;;;;;;;0.30;99.90;;;;;;5074478;28;20577;-45
2023/03/12 00:14:13;;;;;;;;;;;0.20;99.90;;;;;;5061847;28;19989;-51
2023/03/12 00:16:40;;;;;;;;;;;0.20;99.90;;;;;;5067694;28;19993;-48
2023/03/12 00:19:09;;;;;;;;;;;0.20;99.90;;;;;;5056923;28;19995;-47
2023/03/12 00:21:36;;;;;;;;;;;0.30;99.90;;;;;;5075661;28;20430;-48
2023/03/12 00:24:03;;;;;;;;;;;0.20;99.90;;;;;;5059900;28;19992;-45
2023/03/12 00:26:29;;;;;;;;;;;0.20;99.90;;;;;;5057318;28;19950;-48
2023/03/12 00:28:56;;;;;;;;;;;0.20;99.90;;;;;;5057275;28;19990;-46
2023/03/12 00:31:25;;;;;;;;;;;0.20;99.90;;;;;;5079779;28;19941;-41
2023/03/12 00:33:52;;;;;;;;;;;0.20;99.90;;;;;;5072740;28;19947;-41
2023/03/12 00:36:23;;;;;;;;;;;0.20;99.90;;;;;;5075181;28;19963;-46
2023/03/12 00:38:49;;;;;;;;;;;0.20;99.90;;;;;;5072788;28;20410;-47
2023/03/12 00:41:16;;;;;;;;;;;0.10;99.90;;;;;;5056374;28;19986;-47
2023/03/12 00:43:42;;;;;;;;;;;0.10;99.90;;;;;;5067508;28;19990;-44
2023/03/12 00:46:09;;;;;;;;;;;0.10;99.90;;;;;;5058570;28;19950;-44
2023/03/12 00:48:36;;;;;;;;;;;0.10;99.90;;;;;;5069501;28;19997;-45
2023/03/12 00:51:02;;;;;;;;;;;0.10;99.90;;;;;;5054794;28;19948;-44
2023/03/12 00:53:30;;;;;;;;;;;0.20;99.90;;;;;;5074076;28;19947;-46
2023/03/12 00:55:57;;;;;;;;;;;0.10;99.90;;;;;;5075883;28;19953;-44
2023/03/12 00:58:24;;;;;;;;;;;0.10;99.90;;;;;;5057045;28;20012;-46
2023/03/12 01:00:50;;;;;;;;;;;0.10;99.90;;;;;;5074342;28;20487;-44
2023/03/12 01:03:18;;;;;;;;;;;0.10;99.90;;;;;;5073678;28;20007;-45
2023/03/12 01:05:44;;;;;;;;;;;0.10;99.90;;;;;;5073774;28;19992;-45
2023/03/12 01:08:11;;;;;;;;;;;0.10;99.90;;;;;;5057393;28;19943;-44
2023/03/12 01:10:42;;;;;;;;;;;0.10;99.90;;;;;;5076766;28;19942;-44
2023/03/12 01:13:08;;;;;;;;;;;0.20;99.90;;;;;;5080247;28;19946;-44
2023/03/12 01:15:35;;;;;;;;;;;0.20;99.90;;;;;;5073883;28;19947;-45
2023/03/12 01:18:02;;;;;;;;;;;0.20;99.90;;;;;;5056936;28;20396;-45
2023/03/12 01:20:28;;;;;;;;;;;0.10;99.90;;;;;;5073637;28;19943;-42
2023/03/12 01:22:55;;;;;;;;;;;0.20;99.90;;;;;;5073447;28;19942;-43
2023/03/12 01:25:22;;;;;;;;;;;0.20;99.90;;;;;;5073893;28;20001;-43
2023/03/12 01:27:50;;;;;;;;;;;0.20;99.90;;;;;;5073772;28;19942;-44
2023/03/12 01:30:16;;;;;;;;;;;0.20;99.90;;;;;;5074402;28;20385;-43
2023/03/12 01:32:43;;;;;;;;;;;0.20;99.90;;;;;;5055443;28;19986;-44
2023/03/12 01:35:10;;;;;;;;;;;0.20;99.90;;;;;;5074326;28;19995;-47
2023/03/12 01:37:36;;;;;;;;;;;0.30;99.90;;;;;;5073734;28;20472;-47
2023/03/12 01:40:03;;;;;;;;;;;0.30;99.90;;;;;;5056852;28;19959;-47
2023/03/12 01:42:30;;;;;;;;;;;0.30;99.90;;;;;;5073410;28;19950;-47
2023/03/12 01:44:58;;;;;;;;;;;0.30;99.90;;;;;;5073651;28;20057;-47
2023/03/12 01:47:25;;;;;;;;;;;0.30;99.90;;;;;;5052449;28;20000;-43
2023/03/12 01:49:52;;;;;;;;;;;0.30;99.90;;;;;;5073342;28;19946;-45
2023/03/12 01:52:19;;;;;;;;;;;0.40;99.90;;;;;;5045013;28;20416;-46
2023/03/12 01:54:48;;;;;;;;;;;0.40;99.90;;;;;;5060808;28;19943;-47
2023/03/12 01:57:14;;;;;;;;;;;0.40;99.90;;;;;;5073110;28;19950;-48
2023/03/12 01:59:42;;;;;;;;;;;0.40;99.90;;;;;;5055332;28;20485;-42
2023/03/12 02:02:10;;;;;;;;;;;0.40;99.90;;;;;;5056383;28;19943;-45
2023/03/12 02:04:37;;;;;;;;;;;0.40;99.90;;;;;;5074015;28;19946;-46
2023/03/12 02:07:04;;;;;;;;;;;0.50;99.90;;;;;;5061366;28;19995;-45
2023/03/12 02:09:31;;;;;;;;;;;0.50;99.90;;;;;;5071426;28;19944;-48
2023/03/12 02:11:58;;;;;;;;;;;0.50;99.90;;;;;;5056245;28;20289;-45
2023/03/12 02:14:25;;;;;;;;;;;0.50;99.90;;;;;;5063361;28;20019;-48
2023/03/12 02:16:52;;;;;;;;;;;0.50;99.90;;;;;;5067390;28;19950;-46
2023/03/12 02:19:30;;;;;;;;;;;0.50;99.90;;;;;;5055466;28;19965;-44
2023/03/12 02:21:57;;;;;;;;;;;0.60;99.90;;;;;;5050880;28;19945;-45
2023/03/12 02:24:26;;;;;;;;;;;0.60;99.90;;;;;;5054224;28;19945;-47
2023/03/12 02:26:54;;;;;;;;;;;0.60;99.90;;;;;;5055596;28;19951;-43
2023/03/12 02:29:20;;;;;;;;;;;0.60;99.90;;;;;;5069311;28;19985;-47
2023/03/12 02:31:48;;;;;;;;;;;0.70;99.90;;;;;;5062976;28;19989;-49
2023/03/12 02:34:15;;;;;;;;;;;0.70;99.90;;;;;;5072568;28;20350;-49
2023/03/12 02:36:42;;;;;;;;;;;0.70;99.90;;;;;;5072353;28;20292;-44
2023/03/12 02:39:09;;;;;;;;;;;0.70;99.90;;;;;;5092379;28;19961;-47
2023/03/12 02:41:36;;;;;;;;;;;0.70;99.90;;;;;;5053493;28;19946;-50
2023/03/12 02:44:04;;;;;;;;;;;0.70;99.90;;;;;;5066004;28;20396;-47
2023/03/12 02:46:33;;;;;;;;;;;0.70;99.90;;;;;;5047960;28;20394;-48
2023/03/12 02:49:00;;;;;;;;;;;0.60;99.90;;;;;;5070749;28;20122;-43
2023/03/12 02:51:26;;;;;;;;;;;0.60;99.90;;;;;;5073202;28;19949;-48
2023/03/12 02:53:53;;;;;;;;;;;0.70;99.90;;;;;;5072561;28;19999;-49
2023/03/12 02:56:21;;;;;;;;;;;0.70;99.90;;;;;;5071297;28;19946;-48
2023/03/12 02:58:47;;;;;;;;;;;0.70;99.90;;;;;;5081155;28;20410;-49
2023/03/12 03:01:15;;;;;;;;;;;0.70;99.90;;;;;;5055009;28;19998;-47
2023/03/12 03:03:42;;;;;;;;;;;0.70;99.90;;;;;;5055149;28;19980;-45
2023/03/12 03:06:08;;;;;;;;;;;0.70;99.90;;;;;;5071247;28;19998;-47
2023/03/12 03:08:35;;;;;;;;;;;0.70;99.90;;;;;;5050973;28;19995;-48
2023/03/12 03:11:03;;;;;;;;;;;0.70;99.90;;;;;;5052112;28;20347;-49
2023/03/12 03:13:30;;;;;;;;;;;0.70;99.90;;;;;;5054944;28;20322;-50
2023/03/12 03:15:58;;;;;;;;;;;0.70;99.90;;;;;;5072078;28;20364;-48
2023/03/12 03:18:26;;;;;;;;;;;0.70;99.90;;;;;;5074814;28;19945;-50
2023/03/12 03:20:56;;;;;;;;;;;0.70;99.90;;;;;;5071617;28;19968;-48
2023/03/12 03:23:22;;;;;;;;;;;0.70;99.90;;;;;;5077530;28;19942;-46
2023/03/12 03:25:49;;;;;;;;;;;0.70;99.90;;;;;;5086209;28;19945;-47
2023/03/12 03:28:16;;;;;;;;;;;0.70;99.90;;;;;;5072523;28;19946;-44
2023/03/12 03:30:42;;;;;;;;;;;0.60;99.90;;;;;;5072662;28;19952;-44
2023/03/12 03:33:09;;;;;;;;;;;0.70;99.90;;;;;;5053495;28;20325;-48
2023/03/12 03:35:37;;;;;;;;;;;0.80;99.90;;;;;;5071400;28;20343;-47
2023/03/12 03:38:04;;;;;;;;;;;0.70;99.90;;;;;;5048424;28;19947;-47
2023/03/12 03:40:30;;;;;;;;;;;0.70;99.90;;;;;;5069471;28;19980;-48
2023/03/12 03:42:57;;;;;;;;;;;0.70;99.90;;;;;;5054467;28;20466;-48
2023/03/12 03:45:24;;;;;;;;;;;0.80;99.90;;;;;;5071974;28;20298;-47
2023/03/12 03:47:51;;;;;;;;;;;0.70;99.90;;;;;;5053164;28;20045;-46
2023/03/12 03:50:18;;;;;;;;;;;0.70;99.90;;;;;;5071625;28;19948;-48
2023/03/12 03:52:46;;;;;;;;;;;0.80;99.90;;;;;;5085027;28;20008;-50
2023/03/12 03:55:12;;;;;;;;;;;0.80;99.90;;;;;;5054491;28;19996;-49
2023/03/12 03:57:39;;;;;;;;;;;0.70;99.90;;;;;;5071529;28;20537;-47
2023/03/12 04:00:08;;;;;;;;;;;0.80;99.90;;;;;;5076994;28;20004;-49
2023/03/12 04:02:35;;;;;;;;;;;0.80;99.90;;;;;;5060603;28;20389;-47
2023/03/12 04:05:02;;;;;;;;;;;0.80;99.90;;;;;;5088095;28;19954;-50
2023/03/12 04:07:28;;;;;;;;;;;0.90;99.90;;;;;;5054556;28;19945;-50
2023/03/12 04:09:57;;;;;;;;;;;0.90;99.90;;;;;;5074644;28;19953;-47
2023/03/12 04:12:27;;;;;;;;;;;0.80;99.90;;;;;;5059192;28;19951;-49
2023/03/12 04:14:54;;;;;;;;;;;0.90;99.90;;;;;;5071389;28;19947;-46
2023/03/12 04:17:20;;;;;;;;;;;0.80;99.90;;;;;;5051123;28;19992;-49
2023/03/12 04:19:47;;;;;;;;;;;0.90;99.90;;;;;;5072116;28;19972;-42
2023/03/12 04:22:14;;;;;;;;;;;0.90;99.90;;;;;;5071744;28;19946;-47
2023/03/12 04:24:40;;;;;;;;;;;0.90;99.90;;;;;;5070355;28;19946;-44
2023/03/12 04:27:08;;;;;;;;;;;0.90;99.90;;;;;;5055820;28;20642;-46
2023/03/12 04:29:35;;;;;;;;;;;0.90;99.90;;;;;;5052674;28;19981;-49
2023/03/12 04:32:02;;;;;;;;;;;1.00;99.90;;;;;;5070525;28;19941;-46
2023/03/12 04:34:28;;;;;;;;;;;1.00;99.90;;;;;;5059975;28;19991;-43
2023/03/12 04:36:55;;;;;;;;;;;1.00;99.90;;;;;;5071380;28;19946;-45
2023/03/12 04:39:21;;;;;;;;;;;1.00;99.90;;;;;;5070119;28;20000;-47
2023/03/12 04:41:48;;;;;;;;;;;0.90;99.90;;;;;;5053694;28;19944;-45
2023/03/12 04:44:16;;;;;;;;;;;1.00;99.90;;;;;;5054182;28;19992;-47
2023/03/12 04:46:43;;;;;;;;;;;1.00;99.90;;;;;;5054137;28;19950;-45
2023/03/12 04:49:09;;;;;;;;;;;0.90;99.90;;;;;;5067008;28;19945;-47
2023/03/12 04:51:36;;;;;;;;;;;1.00;99.90;;;;;;5064395;28;19949;-47
2023/03/12 04:54:03;;;;;;;;;;;1.00;99.90;;;;;;5053744;28;19992;-48
2023/03/12 04:56:29;;;;;;;;;;;1.00;99.90;;;;;;5077063;28;20086;-45
2023/03/12 04:58:56;;;;;;;;;;;1.00;99.90;;;;;;5075352;28;20001;-44
2023/03/12 05:01:25;;;;;;;;;;;1.00;99.90;;;;;;5073981;28;20309;-49
2023/03/12 05:03:52;;;;;;;;;;;1.10;99.90;;;;;;5063689;28;20035;-45
2023/03/12 05:06:18;;;;;;;;;;;1.00;99.90;;;;;;5051549;28;19951;-49
2023/03/12 05:08:45;;;;;;;;;;;1.00;99.90;;;;;;5056427;28;20405;-50
2023/03/12 05:11:12;;;;;;;;;;;1.00;99.90;;;;;;5054850;28;19993;-46
2023/03/12 05:13:38;;;;;;;;;;;1.00;99.90;;;;;;5043744;28;20035;-49
2023/03/12 05:16:05;;;;;;;;;;;1.00;99.90;;;;;;5073835;28;19997;-47
2023/03/12 05:18:33;;;;;;;;;;;1.00;99.90;;;;;;5050647;28;19943;-48
2023/03/12 05:21:00;;;;;;;;;;;1.00;99.90;;;;;;5036606;28;19972;-47
2023/03/12 05:23:27;;;;;;;;;;;1.00;99.90;;;;;;5069164;28;19944;-48
2023/03/12 05:25:54;;;;;;;;;;;1.00;99.90;;;;;;5077976;28;20383;-49
2023/03/12 05:28:26;;;;;;;;;;;1.00;99.90;;;;;;5064351;28;20416;-47
2023/03/12 05:30:53;;;;;;;;;;;1.10;99.90;;;;;;5067753;28;19950;-48
2023/03/12 05:33:19;;;;;;;;;;;1.10;99.90;;;;;;5073972;28;20380;-44
2023/03/12 05:35:47;;;;;;;;;;;1.10;99.90;;;;;;5073910;28;20365;-48
2023/03/12 05:38:14;;;;;;;;;;;1.10;99.90;;;;;;5068823;28;20443;-49
2023/03/12 05:40:41;;;;;;;;;;;1.10;99.90;;;;;;5063678;28;20417;-45
2023/03/12 05:43:07;;;;;;;;;;;1.10;99.90;;;;;;5055328;28;20408;-42
2023/03/12 05:45:34;;;;;;;;;;;1.10;99.90;;;;;;5072130;28;19990;-46
2023/03/12 05:48:01;;;;;;;;;;;1.10;99.90;;;;;;5073724;28;19951;-48
2023/03/12 05:50:27;;;;;;;;;;;1.10;99.90;;;;;;5073574;28;19950;-41
2023/03/12 05:52:55;;;;;;;;;;;1.10;99.90;;;;;;5086678;28;19947;-45
2023/03/12 05:55:22;;;;;;;;;;;1.10;99.90;;;;;;5067336;28;19967;-47
2023/03/12 05:57:48;;;;;;;;;;;1.10;99.90;;;;;;5072912;28;20393;-48
2023/03/12 06:00:16;;;;;;;;;;;1.10;99.90;;;;;;5068210;28;20019;-43
2023/03/12 06:02:42;;;;;;;;;;;1.10;99.90;;;;;;5071056;28;20039;-44
2023/03/12 06:05:09;;;;;;;;;;;1.10;99.90;;;;;;5079259;28;19999;-44
2023/03/12 06:07:36;;;;;;;;;;;1.10;99.90;;;;;;5072283;28;20296;-45
2023/03/12 06:10:04;;;;;;;;;;;1.20;99.90;;;;;;5054237;28;20294;-47
2023/03/12 06:12:31;;;;;;;;;;;1.20;99.90;;;;;;5053990;28;19950;-48
2023/03/12 06:14:58;;;;;;;;;;;1.20;99.90;;;;;;5051843;28;20038;-41
2023/03/12 06:17:24;;;;;;;;;;;1.20;99.90;;;;;;5044228;28;19949;-45
2023/03/12 06:19:51;;;;;;;;;;;1.20;99.90;;;;;;5047430;28;19967;-48
2023/03/12 06:22:18;;;;;;;;;;;1.30;99.90;;;;;;5056118;28;20047;-46
2023/03/12 06:24:46;;;;;;;;;;;1.30;99.90;;;;;;5073162;28;20009;-47
2023/03/12 06:27:14;;;;;;;;;;;1.30;99.90;;;;;;5056590;28;20017;-46
2023/03/12 06:29:40;;;;;;;;;;;1.30;99.90;;;;;;5058726;28;20452;-47
2023/03/12 06:32:07;;;;;;;;;;;1.40;99.90;;;;;;5055067;28;19977;-46
2023/03/12 06:34:34;;;;;;;;;;;1.40;99.90;;;;;;5069601;28;20035;-47
2023/03/12 06:37:01;;;;;;;;;;;1.50;99.90;;;;;;5044916;28;19955;-47
2023/03/12 06:39:28;;;;;;;;;;;1.40;99.90;;;;;;5054853;28;20083;-41
2023/03/12 06:41:55;;;;;;;;;;;1.40;99.90;;;;;;5055382;28;19965;-48
2023/03/12 06:44:23;;;;;;;;;;;1.50;99.90;;;;;;5072327;28;20369;-46
2023/03/12 06:46:51;;;;;;;;;;;1.50;99.90;;;;;;5045322;28;20012;-43
2023/03/12 06:49:17;;;;;;;;;;;1.50;99.90;;;;;;5075797;28;20472;-45
2023/03/12 06:51:44;;;;;;;;;;;1.50;99.90;;;;;;5072097;28;19973;-46
2023/03/12 06:54:10;;;;;;;;;;;1.50;99.90;;;;;;5083995;28;19989;-47
2023/03/12 06:56:38;;;;;;;;;;;1.50;99.90;;;;;;5054916;28;19946;-45
2023/03/12 06:59:04;;;;;;;;;;;1.50;99.90;;;;;;5044101;28;19950;-49
2023/03/12 07:01:33;;;;;;;;;;;1.60;99.90;;;;;;5058960;28;21737;-47
2023/03/12 07:03:59;;;;;;;;;;;1.50;99.90;;;;;;5054506;28;19987;-46
2023/03/12 07:06:26;;;;;;;;;;;1.50;99.90;;;;;;5072685;28;20466;-49
2023/03/12 07:08:52;;;;;;;;;;;1.60;99.90;;;;;;5072751;28;19965;-46
2023/03/12 07:11:19;;;;;;;;;;;1.50;99.90;;;;;;5072132;28;20055;-49
2023/03/12 07:13:46;;;;;;;;;;;1.60;99.90;;;;;;5054709;28;20412;-51
2023/03/12 07:16:12;;;;;;;;;;;1.60;99.90;;;;;;5070547;28;20476;-53
2023/03/12 07:18:41;;;;;;;;;;;1.50;99.90;;;;;;5072409;28;19945;-52
2023/03/12 07:21:07;;;;;;;;;;;1.60;99.90;;;;;;5053714;28;20064;-48
2023/03/12 07:23:34;;;;;;;;;;;1.50;99.90;;;;;;5054865;28;20000;-46
2023/03/12 07:26:00;;;;;;;;;;;1.50;99.90;;;;;;5072386;28;19946;-46
2023/03/12 07:28:27;;;;;;;;;;;1.60;99.90;;;;;;5061132;28;19986;-48
2023/03/12 07:30:59;;;;;;;;;;;1.60;99.90;;;;;;5072615;28;20015;-47
2023/03/12 07:33:26;;;;;;;;;;;1.60;99.90;;;;;;5072368;28;19996;-46
2023/03/12 07:35:54;;;;;;;;;;;1.60;99.90;;;;;;5071643;28;20010;-48
2023/03/12 07:38:20;;;;;;;;;;;1.50;99.90;;;;;;5045203;28;19948;-44
2023/03/12 07:40:50;;;;;;;;;;;1.60;99.90;;;;;;5069019;28;19984;-44
2023/03/12 07:43:16;;;;;;;;;;;1.50;99.90;;;;;;5069986;28;20012;-48
2023/03/12 07:45:43;;;;;;;;;;;1.50;99.90;;;;;;5080166;28;20022;-44
2023/03/12 07:48:09;;;;;;;;;;;1.50;99.90;;;;;;5071447;28;19989;-46
2023/03/12 07:50:36;;;;;;;;;;;1.60;99.90;;;;;;5053662;28;19952;-47
2023/03/12 07:53:05;;;;;;;;;;;1.50;99.90;;;;;;5066667;28;19991;-50
2023/03/12 07:55:31;;;;;;;;;;;1.60;99.90;;;;;;5052249;28;20786;-46
2023/03/12 07:57:58;;;;;;;;;;;1.50;99.90;;;;;;5057670;28;19946;-46
2023/03/12 08:00:25;;;;;;;;;;;1.50;99.90;;;;;;5078228;28;20352;-47
2023/03/12 08:02:52;;;;;;;;;;;1.50;99.90;;;;;;5075477;28;19996;-44
2023/03/12 08:05:18;;;;;;;;;;;1.50;99.90;;;;;;5060393;28;20657;-43
2023/03/12 08:07:45;;;;;;;;;;;1.60;99.90;;;;;;5036266;28;20034;-45
2023/03/12 08:10:13;;;;;;;;;;;1.60;99.90;;;;;;5053853;28;20479;-45
2023/03/12 08:12:39;;;;;;;;;;;1.60;99.90;;;;;;5074067;28;20012;-45
2023/03/12 08:15:07;;;;;;;;;;;1.50;99.90;;;;;;5064272;28;20409;-50
2023/03/12 08:17:34;;;;;;;;;;;1.60;99.90;;;;;;5071477;28;19942;-48
2023/03/12 08:20:00;;;;;;;;;;;1.60;99.90;;;;;;5071084;28;20065;-46
2023/03/12 08:22:27;;;;;;;;;;;1.60;99.90;;;;;;5083177;28;20002;-46
2023/03/12 08:24:54;;;;;;;;;;;1.60;99.90;;;;;;5072525;28;19945;-45
2023/03/12 08:27:22;;;;;;;;;;;1.60;99.90;;;;;;5072554;28;20348;-50
2023/03/12 08:29:48;;;;;;;;;;;1.60;99.90;;;;;;5071464;28;20371;-47
2023/03/12 08:32:15;;;;;;;;;;;1.60;99.90;;;;;;5055751;28;19979;-49
2023/03/12 08:34:42;;;;;;;;;;;1.70;99.90;;;;;;5081814;28;19988;-46
2023/03/12 08:37:08;;;;;;;;;;;1.60;99.90;;;;;;5074178;28;19954;-46
2023/03/12 08:39:35;;;;;;;;;;;1.60;99.90;;;;;;5066826;28;19992;-45
2023/03/12 08:42:02;;;;;;;;;;;1.60;99.90;;;;;;5064776;28;20425;-43
2023/03/12 08:44:30;;;;;;;;;;;1.70;99.90;;;;;;5074424;28;20364;-45
2023/03/12 08:46:57;;;;;;;;;;;1.60;99.90;;;;;;5075177;28;19945;-47
2023/03/12 08:49:24;;;;;;;;;;;1.70;99.90;;;;;;5072416;28;19939;-49
2023/03/12 08:51:51;;;;;;;;;;;1.70;99.90;;;;;;5053526;28;20001;-50
2023/03/12 08:54:18;;;;;;;;;;;1.70;99.90;;;;;;5049864;28;19947;-48
2023/03/12 08:56:45;;;;;;;;;;;1.70;99.90;;;;;;5061366;28;19946;-46
2023/03/12 08:59:12;;;;;;;;;;;1.70;99.90;;;;;;5074809;28;20440;-49
2023/03/12 09:01:40;;;;;;;;;;;1.70;99.90;;;;;;5049829;28;19995;-48
2023/03/12 09:04:06;;;;;;;;;;;1.80;99.90;;;;;;5070233;28;20002;-45
2023/03/12 09:06:34;;;;;;;;;;;1.80;99.90;;;;;;5082211;28;19946;-48
2023/03/12 09:09:03;;;;;;;;;;;1.80;99.90;;;;;;5078695;28;20343;-50
2023/03/12 09:11:30;;;;;;;;;;;1.90;99.90;;;;;;5057382;28;19953;-50
2023/03/12 09:13:57;;;;;;;;;;;1.80;99.90;;;;;;5052096;28;20045;-44
2023/03/12 09:16:23;;;;;;;;;;;1.90;99.90;;;;;;5054306;28;19985;-53
2023/03/12 09:18:51;;;;;;;;;;;1.90;99.90;;;;;;5073154;28;20405;-51
2023/03/12 09:21:18;;;;;;;;;;;1.90;99.90;;;;;;5073783;28;19966;-48
2023/03/12 09:23:45;;;;;;;;;;;1.90;99.90;;;;;;5074059;28;19997;-48
2023/03/12 09:26:11;;;;;;;;;;;1.90;99.90;;;;;;5077023;28;19944;-53
2023/03/12 09:28:38;;;;;;;;;;;1.90;99.90;;;;;;5074167;28;19983;-51
2023/03/12 09:31:05;;;;;;;;;;;2.00;99.90;;;;;;5086544;28;19993;-51
2023/03/12 09:33:32;;;;;;;;;;;2.00;99.90;;;;;;5077355;28;20293;-47
2023/03/12 09:36:01;;;;;;;;;;;2.00;99.90;;;;;;5050310;28;19954;-46
2023/03/12 09:38:27;;;;;;;;;;;2.10;99.90;;;;;;5079186;28;20018;-47
2023/03/12 09:40:55;;;;;;;;;;;2.00;99.90;;;;;;5073418;28;19948;-47
2023/03/12 09:43:22;;;;;;;;;;;2.10;99.90;;;;;;5062494;28;19946;-53
2023/03/12 09:45:49;;;;;;;;;;;2.10;99.90;;;;;;5071758;28;19947;-49
2023/03/12 09:48:16;;;;;;;;;;;2.10;99.90;;;;;;5056165;28;20008;-43
2023/03/12 09:50:43;;;;;;;;;;;2.10;99.90;;;;;;5056482;28;20397;-44
2023/03/12 09:53:11;;;;;;;;;;;2.20;99.90;;;;;;5073353;28;19987;-46
2023/03/12 09:55:38;;;;;;;;;;;2.10;99.90;;;;;;5062538;28;19990;-45
2023/03/12 09:58:09;;;;;;;;;;;2.10;99.90;;;;;;5057689;28;19946;-47
2023/03/12 10:00:36;;;;;;;;;;;2.20;99.90;;;;;;5074886;28;19997;-43
2023/03/12 10:03:06;;;;;;;;;;;2.20;99.90;;;;;;5063952;28;19971;-48
2023/03/12 10:05:35;;;;;;;;;;;2.20;99.90;;;;;;5076118;28;19943;-50
2023/03/12 10:08:03;;;;;;;;;;;2.30;99.90;;;;;;5048348;28;19996;-46
2023/03/12 10:10:39;;;;;;;;;;;2.30;99.90;;;;;;5084194;28;19960;-49
2023/03/12 10:13:10;;;;;;;;;;;2.30;99.90;;;;;;5054358;28;19953;-43
2023/03/12 10:15:39;;;;;;;;;;;2.30;99.90;;;;;;5064247;28;20316;-49
2023/03/12 10:18:08;;;;;;;;;;;2.30;99.90;;;;;;5070174;28;19949;-47
2023/03/12 10:20:46;;;;;;;;;;;2.40;99.90;;;;;;5075102;28;20063;-46
2023/03/12 10:23:13;;;;;;;;;;;2.40;99.90;;;;;;5056288;28;20490;-38
2023/03/12 10:25:42;;;;;;;;;;;2.50;99.90;;;;;;5055809;28;19992;-44
2023/03/12 10:28:11;;;;;;;;;;;2.50;99.90;;;;;;5071041;28;19968;-46
2023/03/12 10:30:38;;;;;;;;;;;2.60;99.90;;;;;;5066100;28;19984;-49
2023/03/12 10:33:05;;;;;;;;;;;2.60;99.90;;;;;;5055529;28;20051;-47
2023/03/12 10:35:31;;;;;;;;;;;2.60;99.90;;;;;;5054798;28;20007;-45
2023/03/12 10:37:58;;;;;;;;;;;2.60;99.90;;;;;;5073279;28;20348;-45
2023/03/12 10:40:25;;;;;;;;;;;2.70;99.90;;;;;;5039843;28;19998;-44
2023/03/12 10:42:54;;;;;;;;;;;2.70;99.90;;;;;;5077226;28;20017;-51
2023/03/12 10:45:22;;;;;;;;;;;2.70;99.90;;;;;;5069168;28;20366;-51
2023/03/12 10:47:50;;;;;;;;;;;2.70;99.90;;;;;;5071511;28;19951;-46
2023/03/12 10:50:17;;;;;;;;;;;2.80;99.90;;;;;;5055631;28;19949;-53
2023/03/12 10:52:43;;;;;;;;;;;2.80;99.90;;;;;;5047800;28;20393;-54
2023/03/12 10:55:11;;;;;;;;;;;2.80;99.90;;;;;;5047456;28;19990;-51
2023/03/12 10:57:38;;;;;;;;;;;2.90;99.90;;;;;;5055925;28;19989;-49
2023/03/12 11:00:10;;;;;;;;;;;2.90;99.90;;;;;;5088558;28;19983;-52
2023/03/12 11:02:38;;;;;;;;;;;3.00;99.90;;;;;;5054939;28;20502;-49
2023/03/12 11:05:17;;;;;;;;;;;3.10;99.90;;;;;;5055564;28;20468;-46
2023/03/12 11:07:47;;;;;;;;;;;3.10;99.90;;;;;;5054399;28;19986;-49
2023/03/12 11:10:15;;;;;;;;;;;3.20;99.90;;;;;;5054332;28;20032;-49
2023/03/12 11:12:50;;;;;;;;;;;3.20;99.90;;;;;;5070638;28;20003;-52
2023/03/12 11:15:20;;;;;;;;;;;3.30;99.90;;;;;;5065279;28;20054;-49
2023/03/12 11:17:47;;;;;;;;;;;3.30;99.90;;;;;;5072220;28;19951;-48
2023/03/12 11:20:18;;;;;;;;;;;3.40;99.90;;;;;;5053644;28;19968;-49
2023/03/12 11:22:45;;;;;;;;;;;3.50;99.90;;;;;;5046499;28;19963;-48
2023/03/12 11:25:19;;;;;;;;;;;3.50;99.90;;;;;;5049148;28;20332;-51
2023/03/12 11:27:47;;;;;;;;;;;3.50;99.90;;;;;;5070256;28;20304;-49
2023/03/12 11:30:15;;;;;;;;;;;3.50;99.90;;;;;;5083019;28;19948;-47
2023/03/12 11:32:43;;;;;;;;;;;3.60;99.90;;;;;;5068466;28;19948;-48
2023/03/12 11:35:10;;;;;;;;;;;3.70;99.90;;;;;;5072792;28;19997;-47
2023/03/12 11:37:40;;;;;;;;;;;3.70;99.90;;;;;;5064683;28;19947;-46
2023/03/12 11:40:15;;;;;;;;;;;3.80;99.90;;;;;;5061668;28;19944;-45
2023/03/12 11:42:46;;;;;;;;;;;3.90;99.90;;;;;;5039790;28;19964;-47
2023/03/12 11:45:15;;;;;;;;;;;4.00;99.90;;;;;;5046210;28;19947;-45
2023/03/12 11:47:47;;;;;;;;;;;4.00;99.90;;;;;;5050980;28;19989;-47
2023/03/12 11:50:15;;;;;;;;;;;4.10;99.90;;;;;;5048421;28;19990;-49
2023/03/12 11:52:45;;;;;;;;;;;4.10;99.90;;;;;;5075262;28;19992;-47
2023/03/12 11:55:15;;;;;;;;;;;4.30;99.90;;;;;;5048111;28;19978;-47
2023/03/12 11:57:44;;;;;;;;;;;4.40;99.90;;;;;;5059162;28;19943;-46
2023/03/12 12:00:12;;;;;;;;;;;4.40;99.90;;;;;;5074340;28;19948;-49
2023/03/12 12:02:44;;;;;;;;;;;4.50;99.90;;;;;;5055296;28;19971;-44
2023/03/12 12:05:20;;;;;;;;;;;4.60;99.90;;;;;;5071574;28;21238;-47
2023/03/12 12:08:02;;;;;;;;;;;4.70;99.90;;;;;;5079477;28;19944;-47
2023/03/12 12:10:30;;;;;;;;;;;4.70;99.90;;;;;;5068790;28;20003;-47
2023/03/12 12:12:59;;;;;;;;;;;4.70;99.90;;;;;;5074315;28;19943;-47
2023/03/12 12:15:28;;;;;;;;;;;4.70;99.90;;;;;;5074915;28;19944;-51
2023/03/12 12:17:56;;;;;;;;;;;4.80;99.90;;;;;;5069906;28;19995;-47
2023/03/12 12:20:34;;;;;;;;;;;4.90;99.90;;;;;;5069442;28;20377;-50
2023/03/12 12:23:03;;;;;;;;;;;4.90;99.90;;;;;;5072837;28;20326;-45
2023/03/12 12:25:34;;;;;;;;;;;5.00;99.90;;;;;;5057363;28;19982;-48
2023/03/12 12:28:04;;;;;;;;;;;5.00;99.90;;;;;;5059698;28;19953;-44
2023/03/12 12:30:42;;;;;;;;;;;5.10;99.90;;;;;;5072395;28;19943;-45
2023/03/12 12:33:13;;;;;;;;;;;5.20;99.90;;;;;;5074056;28;20007;-46
2023/03/12 12:35:41;;;;;;;;;;;5.40;99.90;;;;;;5053790;28;19945;-45
2023/03/12 12:38:09;;;;;;;;;;;5.50;99.90;;;;;;5072676;28;19957;-44
2023/03/12 12:40:36;;;;;;;;;;;5.60;99.90;;;;;;5072111;28;19995;-47
2023/03/12 12:43:13;;;;;;;;;;;5.70;99.90;;;;;;5069951;28;20338;-47
2023/03/12 12:45:40;;;;;;;;;;;5.80;99.90;;;;;;5069013;28;19944;-45
2023/03/12 12:48:08;;;;;;;;;;;5.90;99.90;;;;;;5079383;28;19941;-45
2023/03/12 12:50:36;;;;;;;;;;;6.10;99.90;;;;;;5071077;28;19971;-47
2023/03/12 12:53:08;;;;;;;;;;;6.20;99.90;;;;;;5043568;28;19945;-44
2023/03/12 12:55:35;;;;;;;;;;;6.20;99.90;;;;;;5051274;28;20387;-47
2023/03/12 12:58:02;;;;;;;;;;;6.40;99.90;;;;;;5064504;28;20031;-47
2023/03/12 13:00:40;;;;;;;;;;;6.40;99.90;;;;;;5059766;28;19996;-49
2023/03/12 13:03:07;;;;;;;;;;;6.50;99.90;;;;;;5047818;28;19997;-42
2023/03/12 13:05:49;;;;;;;;;;;6.50;99.90;;;;;;5074313;28;20414;-46
2023/03/12 13:08:33;;;;;;;;;;;6.60;99.90;;;;;;5056080;28;20408;-42
2023/03/12 13:11:00;;;;;;;;;;;6.80;99.90;;;;;;5045140;28;20003;-45
2023/03/12 13:13:26;;;;;;;;;;;6.80;99.90;;;;;;5070901;28;19987;-44
2023/03/12 13:15:53;;;;;;;;;;;6.80;99.90;;;;;;5070563;28;20286;-47
2023/03/12 13:18:21;;;;;;;;;;;6.80;99.90;;;;;;5058327;28;20003;-46
2023/03/12 13:21:05;;;;;;;;;;;6.90;99.90;;;;;;5051694;28;19991;-45
2023/03/12 13:23:34;;;;;;;;;;;6.90;99.90;;;;;;5047393;28;20352;-46
2023/03/12 13:26:03;;;;;;;;;;;6.90;99.90;;;;;;5069684;28;19948;-46
2023/03/12 13:28:34;;;;;;;;;;;6.90;99.90;;;;;;5072217;28;20076;-47
2023/03/12 13:31:00;;;;;;;;;;;6.90;99.90;;;;;;5070624;28;20420;-49
2023/03/12 13:33:38;;;;;;;;;;;6.90;99.90;;;;;;5071262;28;19985;-49
2023/03/12 13:36:06;;;;;;;;;;;6.90;99.90;;;;;;5054684;28;20361;-48
2023/03/12 13:38:37;;;;;;;;;;;6.90;99.90;;;;;;5060366;28;20417;-47
2023/03/12 13:41:04;;;;;;;;;;;7.00;99.90;;;;;;5054368;28;19943;-47
2023/03/12 13:43:46;;;;;;;;;;;7.10;99.90;;;;;;5065144;28;19966;-47
2023/03/12 13:46:21;;;;;;;;;;;7.10;99.90;;;;;;5054256;28;19976;-52
2023/03/12 13:48:47;;;;;;;;;;;7.10;99.90;;;;;;5058948;28;20194;-47
2023/03/12 13:51:18;;;;;;;;;;;7.10;99.90;;;;;;5054103;28;19983;-50
2023/03/12 13:53:48;;;;;;;;;;;7.10;99.90;;;;;;5069666;28;19989;-48
2023/03/12 13:56:16;;;;;;;;;;;7.20;99.90;;;;;;5072830;28;19945;-46
2023/03/12 13:58:44;;;;;;;;;;;7.20;99.90;;;;;;5071308;28;19991;-47
2023/03/12 14:01:13;;;;;;;;;;;7.20;99.90;;;;;;5048238;28;19997;-48
2023/03/12 14:03:41;;;;;;;;;;;7.30;99.90;;;;;;5068162;28;19938;-44
2023/03/12 14:06:08;;;;;;;;;;;7.30;99.90;;;;;;5067447;28;19980;-49
2023/03/12 14:08:42;;;;;;;;;;;7.40;99.90;;;;;;5068011;28;19946;-50
2023/03/12 14:11:16;;;;;;;;;;;7.40;99.90;;;;;;5066103;28;19953;-46
2023/03/12 14:13:46;;;;;;;;;;;7.50;99.90;;;;;;5063084;28;19946;-44
2023/03/12 14:16:15;;;;;;;;;;;7.40;99.90;;;;;;5067933;28;19999;-49
2023/03/12 14:18:42;;;;;;;;;;;7.40;99.90;;;;;;5050737;28;19943;-48
2023/03/12 14:21:10;;;;;;;;;;;7.40;99.90;;;;;;5054073;28;19998;-47
2023/03/12 14:23:37;;;;;;;;;;;7.50;99.90;;;;;;5054310;28;19972;-46
2023/03/12 14:26:05;;;;;;;;;;;7.50;99.90;;;;;;5065451;28;19947;-50
2023/03/12 14:28:33;;;;;;;;;;;7.50;99.90;;;;;;5047492;28;19945;-48
2023/03/12 14:31:00;;;;;;;;;;;7.50;99.90;;;;;;5046237;28;19947;-46
2023/03/12 14:33:28;;;;;;;;;;;7.40;99.90;;;;;;5068605;28;20421;-49
2023/03/12 14:35:55;;;;;;;;;;;7.50;99.90;;;;;;5047501;28;19989;-47